sensor_id;sensor_type;location;lat;lon;timestamp;P1;durP1;ratioP1;P2;durP2;ratioP2
45792;SDS011;31495;42.740;22.908;2023-04-04T00:00:11;0.90;;;0.40;;
45792;SDS011;31495;42.740;22.908;2023-04-04T00:01:11;1.08;;;0.40;;
45792;SDS011;31495;42.740;22.908;2023-04-04T00:02:11;1.77;;;0.40;;
45792;SDS011;31495;42.740;22.908;2023-04-04T00:03:10;1.20;;;0.43;;
45792;SDS011;31495;42.740;22.908;2023-04-04T00:04:10;0.52;;;0.30;;
45792;SDS011;31495;42.740;22.908;2023-04-04T00:05:09;3.33;;;0.60;;
45792;SDS011;31495;42.740;22.908;2023-04-04T00:06:09;1.30;;;0.40;;
45792;SDS011;31495;42.740;22.908;2023-04-04T00:07:08;1.33;;;0.55;;
45792;SDS011;31495;42.740;22.908;2023-04-04T00:08:07;0.80;;;0.40;;
45792;SDS011;31495;42.740;22.908;2023-04-04T00:09:07;0.68;;;0.30;;
45792;SDS011;31495;42.740;22.908;2023-04-04T00:10:07;0.70;;;0.30;;
45792;SDS011;31495;42.740;22.908;2023-04-04T00:11:07;0.50;;;0.30;;
45792;SDS011;31495;42.740;22.908;2023-04-04T00:12:06;3.35;;;0.40;;
45792;SDS011;31495;42.740;22.908;2023-04-04T00:13:06;0.93;;;0.35;;
45792;SDS011;31495;42.740;22.908;2023-04-04T00:14:07;1.20;;;0.60;;
45792;SDS011;31495;42.740;22.908;2023-04-04T00:15:07;1.02;;;0.50;;
45792;SDS011;31495;42.740;22.908;2023-04-04T00:16:07;1.80;;;0.47;;
45792;SDS011;31495;42.740;22.908;2023-04-04T00:17:08;1.17;;;0.45;;
45792;SDS011;31495;42.740;22.908;2023-04-04T00:18:07;1.10;;;0.35;;
45792;SDS011;31495;42.740;22.908;2023-04-04T00:19:07;1.63;;;0.80;;
45792;SDS011;31495;42.740;22.908;2023-04-04T00:20:07;0.82;;;0.50;;
45792;SDS011;31495;42.740;22.908;2023-04-04T00:21:07;0.88;;;0.43;;
45792;SDS011;31495;42.740;22.908;2023-04-04T00:22:06;2.10;;;0.50;;
45792;SDS011;31495;42.740;22.908;2023-04-04T00:23:06;1.55;;;0.65;;
45792;SDS011;31495;42.740;22.908;2023-04-04T00:24:09;1.15;;;0.45;;
45792;SDS011;31495;42.740;22.908;2023-04-04T00:25:08;1.20;;;0.40;;
45792;SDS011;31495;42.740;22.908;2023-04-04T00:26:08;1.70;;;0.73;;
45792;SDS011;31495;42.740;22.908;2023-04-04T00:27:08;1.60;;;0.57;;
45792;SDS011;31495;42.740;22.908;2023-04-04T00:28:07;3.08;;;1.08;;
45792;SDS011;31495;42.740;22.908;2023-04-04T00:29:06;2.88;;;0.60;;
45792;SDS011;31495;42.740;22.908;2023-04-04T00:30:06;1.75;;;0.68;;
45792;SDS011;31495;42.740;22.908;2023-04-04T00:31:06;1.77;;;0.40;;
45792;SDS011;31495;42.740;22.908;2023-04-04T00:32:06;1.67;;;0.60;;
45792;SDS011;31495;42.740;22.908;2023-04-04T00:33:05;1.83;;;0.30;;
45792;SDS011;31495;42.740;22.908;2023-04-04T00:34:05;0.63;;;0.50;;
45792;SDS011;31495;42.740;22.908;2023-04-04T00:35:05;1.10;;;0.50;;
45792;SDS011;31495;42.740;22.908;2023-04-04T00:36:05;0.80;;;0.40;;
45792;SDS011;31495;42.740;22.908;2023-04-04T00:37:05;3.05;;;0.30;;
45792;SDS011;31495;42.740;22.908;2023-04-04T00:38:05;1.20;;;0.30;;
45792;SDS011;31495;42.740;22.908;2023-04-04T00:39:06;1.05;;;0.57;;
45792;SDS011;31495;42.740;22.908;2023-04-04T00:40:05;0.93;;;0.47;;
45792;SDS011;31495;42.740;22.908;2023-04-04T00:41:06;0.95;;;0.52;;
45792;SDS011;31495;42.740;22.908;2023-04-04T00:42:06;0.90;;;0.50;;
45792;SDS011;31495;42.740;22.908;2023-04-04T00:43:06;0.88;;;0.50;;
45792;SDS011;31495;42.740;22.908;2023-04-04T00:44:06;2.35;;;0.60;;
45792;SDS011;31495;42.740;22.908;2023-04-04T00:45:06;1.42;;;0.50;;
45792;SDS011;31495;42.740;22.908;2023-04-04T00:46:06;0.95;;;0.50;;
45792;SDS011;31495;42.740;22.908;2023-04-04T00:47:06;0.63;;;0.38;;
45792;SDS011;31495;42.740;22.908;2023-04-04T00:48:06;0.70;;;0.40;;
45792;SDS011;31495;42.740;22.908;2023-04-04T00:49:06;1.10;;;0.40;;
45792;SDS011;31495;42.740;22.908;2023-04-04T00:50:06;0.93;;;0.45;;
45792;SDS011;31495;42.740;22.908;2023-04-04T00:51:06;0.60;;;0.40;;
45792;SDS011;31495;42.740;22.908;2023-04-04T00:52:05;1.25;;;0.60;;
45792;SDS011;31495;42.740;22.908;2023-04-04T00:53:05;1.08;;;0.52;;
45792;SDS011;31495;42.740;22.908;2023-04-04T00:54:05;1.05;;;0.55;;
45792;SDS011;31495;42.740;22.908;2023-04-04T00:55:04;0.93;;;0.52;;
45792;SDS011;31495;42.740;22.908;2023-04-04T00:56:04;0.77;;;0.57;;
45792;SDS011;31495;42.740;22.908;2023-04-04T00:57:06;1.15;;;0.50;;
45792;SDS011;31495;42.740;22.908;2023-04-04T00:58:07;0.90;;;0.52;;
45792;SDS011;31495;42.740;22.908;2023-04-04T00:59:06;1.27;;;0.82;;
45792;SDS011;31495;42.740;22.908;2023-04-04T01:00:10;1.58;;;0.50;;
45792;SDS011;31495;42.740;22.908;2023-04-04T01:01:11;1.88;;;0.57;;
45792;SDS011;31495;42.740;22.908;2023-04-04T01:02:11;1.85;;;0.95;;
45792;SDS011;31495;42.740;22.908;2023-04-04T01:03:11;1.55;;;0.93;;
45792;SDS011;31495;42.740;22.908;2023-04-04T01:04:11;1.13;;;0.73;;
45792;SDS011;31495;42.740;22.908;2023-04-04T01:05:10;1.77;;;1.20;;
45792;SDS011;31495;42.740;22.908;2023-04-04T01:06:10;1.13;;;0.90;;
45792;SDS011;31495;42.740;22.908;2023-04-04T01:07:11;1.48;;;0.80;;
45792;SDS011;31495;42.740;22.908;2023-04-04T01:08:11;1.17;;;0.90;;
45792;SDS011;31495;42.740;22.908;2023-04-04T01:09:11;1.17;;;0.77;;
45792;SDS011;31495;42.740;22.908;2023-04-04T01:10:11;3.58;;;1.00;;
45792;SDS011;31495;42.740;22.908;2023-04-04T01:11:11;1.50;;;0.77;;
45792;SDS011;31495;42.740;22.908;2023-04-04T01:12:11;1.98;;;0.98;;
45792;SDS011;31495;42.740;22.908;2023-04-04T01:13:11;1.60;;;0.95;;
45792;SDS011;31495;42.740;22.908;2023-04-04T01:14:10;1.10;;;0.70;;
45792;SDS011;31495;42.740;22.908;2023-04-04T01:15:10;1.23;;;0.82;;
45792;SDS011;31495;42.740;22.908;2023-04-04T01:16:09;1.95;;;1.08;;
45792;SDS011;31495;42.740;22.908;2023-04-04T01:17:09;2.00;;;1.15;;
45792;SDS011;31495;42.740;22.908;2023-04-04T01:18:10;3.78;;;1.33;;
45792;SDS011;31495;42.740;22.908;2023-04-04T01:19:13;1.80;;;1.00;;
45792;SDS011;31495;42.740;22.908;2023-04-04T01:20:21;2.80;;;1.70;;
45792;SDS011;31495;42.740;22.908;2023-04-04T01:21:24;2.47;;;1.40;;
45792;SDS011;31495;42.740;22.908;2023-04-04T01:22:26;3.97;;;1.70;;
45792;SDS011;31495;42.740;22.908;2023-04-04T01:23:31;3.85;;;2.25;;
45792;SDS011;31495;42.740;22.908;2023-04-04T01:24:34;3.40;;;2.10;;
45792;SDS011;31495;42.740;22.908;2023-04-04T01:25:34;3.35;;;1.83;;
45792;SDS011;31495;42.740;22.908;2023-04-04T01:26:34;3.40;;;1.98;;
45792;SDS011;31495;42.740;22.908;2023-04-04T01:27:34;3.03;;;2.00;;
45792;SDS011;31495;42.740;22.908;2023-04-04T01:28:34;3.85;;;1.80;;
45792;SDS011;31495;42.740;22.908;2023-04-04T01:29:33;2.55;;;1.30;;
45792;SDS011;31495;42.740;22.908;2023-04-04T01:30:33;6.13;;;1.50;;
45792;SDS011;31495;42.740;22.908;2023-04-04T01:31:36;2.28;;;1.55;;
45792;SDS011;31495;42.740;22.908;2023-04-04T01:32:43;3.92;;;1.85;;
45792;SDS011;31495;42.740;22.908;2023-04-04T01:33:52;4.03;;;1.85;;
45792;SDS011;31495;42.740;22.908;2023-04-04T01:36:22;2.75;;;1.27;;
45792;SDS011;31495;42.740;22.908;2023-04-04T01:40:35;1.98;;;0.80;;
45792;SDS011;31495;42.740;22.908;2023-04-04T01:41:36;1.98;;;0.93;;
45792;SDS011;31495;42.740;22.908;2023-04-04T01:42:38;3.00;;;1.30;;
45792;SDS011;31495;42.740;22.908;2023-04-04T01:43:39;1.00;;;0.63;;
45792;SDS011;31495;42.740;22.908;2023-04-04T01:44:42;1.73;;;0.63;;
45792;SDS011;31495;42.740;22.908;2023-04-04T01:45:42;1.77;;;0.60;;
45792;SDS011;31495;42.740;22.908;2023-04-04T01:46:41;3.00;;;0.93;;
45792;SDS011;31495;42.740;22.908;2023-04-04T01:47:41;1.20;;;0.50;;
45792;SDS011;31495;42.740;22.908;2023-04-04T01:48:41;1.10;;;0.60;;
45792;SDS011;31495;42.740;22.908;2023-04-04T01:49:41;1.60;;;0.75;;
45792;SDS011;31495;42.740;22.908;2023-04-04T01:50:41;1.92;;;0.70;;
45792;SDS011;31495;42.740;22.908;2023-04-04T01:51:40;1.23;;;0.50;;
45792;SDS011;31495;42.740;22.908;2023-04-04T01:52:40;1.55;;;0.68;;
45792;SDS011;31495;42.740;22.908;2023-04-04T01:53:40;1.77;;;0.68;;
45792;SDS011;31495;42.740;22.908;2023-04-04T01:54:39;1.77;;;0.75;;
45792;SDS011;31495;42.740;22.908;2023-04-04T01:55:39;1.77;;;0.93;;
45792;SDS011;31495;42.740;22.908;2023-04-04T01:56:39;1.73;;;0.80;;
45792;SDS011;31495;42.740;22.908;2023-04-04T01:57:38;0.95;;;0.70;;
45792;SDS011;31495;42.740;22.908;2023-04-04T01:58:37;2.38;;;0.95;;
45792;SDS011;31495;42.740;22.908;2023-04-04T01:59:37;2.17;;;1.00;;
45792;SDS011;31495;42.740;22.908;2023-04-04T02:00:36;3.67;;;1.15;;
45792;SDS011;31495;42.740;22.908;2023-04-04T02:01:36;2.35;;;1.27;;
45792;SDS011;31495;42.740;22.908;2023-04-04T02:02:36;3.40;;;2.28;;
45792;SDS011;31495;42.740;22.908;2023-04-04T02:03:36;4.03;;;1.95;;
45792;SDS011;31495;42.740;22.908;2023-04-04T02:04:36;3.17;;;1.88;;
45792;SDS011;31495;42.740;22.908;2023-04-04T02:05:35;5.43;;;2.47;;
45792;SDS011;31495;42.740;22.908;2023-04-04T02:06:34;4.82;;;2.38;;
45792;SDS011;31495;42.740;22.908;2023-04-04T02:07:34;4.43;;;2.80;;
45792;SDS011;31495;42.740;22.908;2023-04-04T02:08:33;5.15;;;2.90;;
45792;SDS011;31495;42.740;22.908;2023-04-04T02:09:33;4.00;;;1.90;;
45792;SDS011;31495;42.740;22.908;2023-04-04T02:10:32;3.45;;;2.08;;
45792;SDS011;31495;42.740;22.908;2023-04-04T02:11:31;4.03;;;1.45;;
45792;SDS011;31495;42.740;22.908;2023-04-04T02:12:31;3.15;;;1.65;;
45792;SDS011;31495;42.740;22.908;2023-04-04T02:13:31;4.40;;;2.38;;
45792;SDS011;31495;42.740;22.908;2023-04-04T02:14:31;8.00;;;2.22;;
45792;SDS011;31495;42.740;22.908;2023-04-04T02:15:30;5.35;;;2.65;;
45792;SDS011;31495;42.740;22.908;2023-04-04T02:16:30;4.93;;;2.45;;
45792;SDS011;31495;42.740;22.908;2023-04-04T02:17:30;4.93;;;2.85;;
45792;SDS011;31495;42.740;22.908;2023-04-04T02:18:30;5.00;;;2.22;;
45792;SDS011;31495;42.740;22.908;2023-04-04T02:19:29;4.30;;;2.28;;
45792;SDS011;31495;42.740;22.908;2023-04-04T02:20:28;4.72;;;2.78;;
45792;SDS011;31495;42.740;22.908;2023-04-04T02:21:28;3.80;;;2.10;;
45792;SDS011;31495;42.740;22.908;2023-04-04T02:22:28;3.90;;;1.52;;
45792;SDS011;31495;42.740;22.908;2023-04-04T02:23:27;5.15;;;2.13;;
45792;SDS011;31495;42.740;22.908;2023-04-04T02:24:27;3.25;;;1.77;;
45792;SDS011;31495;42.740;22.908;2023-04-04T02:25:26;3.40;;;1.90;;
45792;SDS011;31495;42.740;22.908;2023-04-04T02:26:26;3.72;;;2.13;;
45792;SDS011;31495;42.740;22.908;2023-04-04T02:27:25;3.65;;;1.48;;
45792;SDS011;31495;42.740;22.908;2023-04-04T02:28:27;2.85;;;1.45;;
45792;SDS011;31495;42.740;22.908;2023-04-04T02:29:26;2.35;;;1.23;;
45792;SDS011;31495;42.740;22.908;2023-04-04T02:30:26;3.40;;;0.98;;
45792;SDS011;31495;42.740;22.908;2023-04-04T02:31:25;1.63;;;0.73;;
45792;SDS011;31495;42.740;22.908;2023-04-04T02:32:25;1.92;;;1.00;;
45792;SDS011;31495;42.740;22.908;2023-04-04T02:33:25;3.78;;;1.52;;
45792;SDS011;31495;42.740;22.908;2023-04-04T02:34:25;5.28;;;1.60;;
45792;SDS011;31495;42.740;22.908;2023-04-04T02:35:24;1.67;;;0.82;;
45792;SDS011;31495;42.740;22.908;2023-04-04T02:36:23;2.45;;;1.10;;
45792;SDS011;31495;42.740;22.908;2023-04-04T02:37:23;5.32;;;1.08;;
45792;SDS011;31495;42.740;22.908;2023-04-04T02:38:22;3.50;;;1.02;;
45792;SDS011;31495;42.740;22.908;2023-04-04T02:39:22;4.28;;;1.55;;
45792;SDS011;31495;42.740;22.908;2023-04-04T02:40:21;2.05;;;0.73;;
45792;SDS011;31495;42.740;22.908;2023-04-04T02:41:21;4.18;;;1.00;;
45792;SDS011;31495;42.740;22.908;2023-04-04T02:42:21;4.53;;;1.25;;
45792;SDS011;31495;42.740;22.908;2023-04-04T02:43:21;3.92;;;0.73;;
45792;SDS011;31495;42.740;22.908;2023-04-04T02:44:20;4.90;;;1.40;;
45792;SDS011;31495;42.740;22.908;2023-04-04T02:45:20;5.45;;;1.17;;
45792;SDS011;31495;42.740;22.908;2023-04-04T02:46:20;5.93;;;1.20;;
45792;SDS011;31495;42.740;22.908;2023-04-04T02:47:19;5.38;;;1.38;;
45792;SDS011;31495;42.740;22.908;2023-04-04T02:48:19;4.25;;;0.95;;
45792;SDS011;31495;42.740;22.908;2023-04-04T02:49:19;6.55;;;1.40;;
45792;SDS011;31495;42.740;22.908;2023-04-04T02:50:18;6.60;;;1.10;;
45792;SDS011;31495;42.740;22.908;2023-04-04T02:51:18;10.00;;;1.45;;
45792;SDS011;31495;42.740;22.908;2023-04-04T02:52:19;7.00;;;1.63;;
45792;SDS011;31495;42.740;22.908;2023-04-04T02:53:19;4.50;;;0.85;;
45792;SDS011;31495;42.740;22.908;2023-04-04T02:54:18;6.03;;;1.45;;
45792;SDS011;31495;42.740;22.908;2023-04-04T02:55:17;5.72;;;1.13;;
45792;SDS011;31495;42.740;22.908;2023-04-04T02:56:17;7.90;;;1.67;;
45792;SDS011;31495;42.740;22.908;2023-04-04T02:57:16;5.68;;;1.60;;
45792;SDS011;31495;42.740;22.908;2023-04-04T02:58:16;5.45;;;1.55;;
45792;SDS011;31495;42.740;22.908;2023-04-04T02:59:16;8.50;;;1.90;;
45792;SDS011;31495;42.740;22.908;2023-04-04T03:00:16;7.18;;;3.08;;
45792;SDS011;31495;42.740;22.908;2023-04-04T03:01:16;8.88;;;4.00;;
45792;SDS011;31495;42.740;22.908;2023-04-04T03:02:16;5.72;;;2.38;;
45792;SDS011;31495;42.740;22.908;2023-04-04T03:03:15;5.63;;;2.35;;
45792;SDS011;31495;42.740;22.908;2023-04-04T03:04:14;9.40;;;1.38;;
45792;SDS011;31495;42.740;22.908;2023-04-04T03:05:15;2.45;;;0.90;;
45792;SDS011;31495;42.740;22.908;2023-04-04T03:06:14;8.27;;;1.35;;
45792;SDS011;31495;42.740;22.908;2023-04-04T03:07:13;8.93;;;2.25;;
45792;SDS011;31495;42.740;22.908;2023-04-04T03:08:13;9.15;;;3.67;;
45792;SDS011;31495;42.740;22.908;2023-04-04T03:09:13;14.02;;;4.07;;
45792;SDS011;31495;42.740;22.908;2023-04-04T03:10:13;9.38;;;2.75;;
45792;SDS011;31495;42.740;22.908;2023-04-04T03:11:16;8.48;;;2.28;;
45792;SDS011;31495;42.740;22.908;2023-04-04T03:12:19;7.15;;;1.95;;
45792;SDS011;31495;42.740;22.908;2023-04-04T03:13:19;6.45;;;2.03;;
45792;SDS011;31495;42.740;22.908;2023-04-04T03:14:19;5.68;;;1.60;;
45792;SDS011;31495;42.740;22.908;2023-04-04T03:15:18;5.60;;;2.00;;
45792;SDS011;31495;42.740;22.908;2023-04-04T03:16:18;6.07;;;2.35;;
45792;SDS011;31495;42.740;22.908;2023-04-04T03:17:18;3.90;;;2.03;;
45792;SDS011;31495;42.740;22.908;2023-04-04T03:18:18;8.57;;;1.80;;
45792;SDS011;31495;42.740;22.908;2023-04-04T03:19:17;4.85;;;1.70;;
45792;SDS011;31495;42.740;22.908;2023-04-04T03:20:17;5.25;;;1.35;;
45792;SDS011;31495;42.740;22.908;2023-04-04T03:21:16;8.63;;;2.60;;
45792;SDS011;31495;42.740;22.908;2023-04-04T03:22:16;7.60;;;1.98;;
45792;SDS011;31495;42.740;22.908;2023-04-04T03:23:16;12.10;;;2.50;;
45792;SDS011;31495;42.740;22.908;2023-04-04T03:24:16;11.05;;;1.95;;
45792;SDS011;31495;42.740;22.908;2023-04-04T03:25:15;6.30;;;2.45;;
45792;SDS011;31495;42.740;22.908;2023-04-04T03:26:15;4.13;;;1.85;;
45792;SDS011;31495;42.740;22.908;2023-04-04T03:27:14;4.10;;;2.08;;
45792;SDS011;31495;42.740;22.908;2023-04-04T03:28:14;7.72;;;2.78;;
45792;SDS011;31495;42.740;22.908;2023-04-04T03:29:14;11.20;;;4.40;;
45792;SDS011;31495;42.740;22.908;2023-04-04T03:30:13;9.35;;;3.58;;
45792;SDS011;31495;42.740;22.908;2023-04-04T03:31:13;6.43;;;3.53;;
45792;SDS011;31495;42.740;22.908;2023-04-04T03:32:12;6.32;;;3.65;;
45792;SDS011;31495;42.740;22.908;2023-04-04T03:33:11;5.38;;;2.78;;
45792;SDS011;31495;42.740;22.908;2023-04-04T03:34:11;5.63;;;2.60;;
45792;SDS011;31495;42.740;22.908;2023-04-04T03:35:10;7.05;;;3.65;;
45792;SDS011;31495;42.740;22.908;2023-04-04T03:36:11;5.97;;;3.00;;
45792;SDS011;31495;42.740;22.908;2023-04-04T03:37:11;4.82;;;2.50;;
45792;SDS011;31495;42.740;22.908;2023-04-04T03:38:11;7.22;;;3.05;;
45792;SDS011;31495;42.740;22.908;2023-04-04T03:39:11;5.07;;;3.00;;
45792;SDS011;31495;42.740;22.908;2023-04-04T03:40:11;10.60;;;3.65;;
45792;SDS011;31495;42.740;22.908;2023-04-04T03:41:11;8.57;;;3.25;;
45792;SDS011;31495;42.740;22.908;2023-04-04T03:42:11;6.53;;;3.33;;
45792;SDS011;31495;42.740;22.908;2023-04-04T03:43:10;9.27;;;4.20;;
45792;SDS011;31495;42.740;22.908;2023-04-04T03:44:11;10.10;;;4.03;;
45792;SDS011;31495;42.740;22.908;2023-04-04T03:45:10;8.07;;;3.58;;
45792;SDS011;31495;42.740;22.908;2023-04-04T03:46:09;7.00;;;3.30;;
45792;SDS011;31495;42.740;22.908;2023-04-04T03:47:09;5.95;;;3.22;;
45792;SDS011;31495;42.740;22.908;2023-04-04T03:48:09;10.25;;;4.03;;
45792;SDS011;31495;42.740;22.908;2023-04-04T03:49:09;7.85;;;3.42;;
45792;SDS011;31495;42.740;22.908;2023-04-04T03:50:08;13.65;;;4.75;;
45792;SDS011;31495;42.740;22.908;2023-04-04T03:51:08;9.27;;;3.97;;
45792;SDS011;31495;42.740;22.908;2023-04-04T03:52:08;10.18;;;4.20;;
45792;SDS011;31495;42.740;22.908;2023-04-04T03:53:07;6.22;;;3.17;;
45792;SDS011;31495;42.740;22.908;2023-04-04T03:54:07;8.50;;;2.63;;
45792;SDS011;31495;42.740;22.908;2023-04-04T03:55:06;8.23;;;3.78;;
45792;SDS011;31495;42.740;22.908;2023-04-04T03:56:07;8.95;;;3.50;;
45792;SDS011;31495;42.740;22.908;2023-04-04T03:57:06;7.15;;;3.50;;
45792;SDS011;31495;42.740;22.908;2023-04-04T03:58:06;13.68;;;4.57;;
45792;SDS011;31495;42.740;22.908;2023-04-04T03:59:06;9.88;;;4.65;;
45792;SDS011;31495;42.740;22.908;2023-04-04T04:00:06;11.68;;;5.32;;
45792;SDS011;31495;42.740;22.908;2023-04-04T04:01:06;11.00;;;5.78;;
45792;SDS011;31495;42.740;22.908;2023-04-04T04:02:05;16.50;;;5.97;;
45792;SDS011;31495;42.740;22.908;2023-04-04T04:03:05;9.35;;;4.57;;
45792;SDS011;31495;42.740;22.908;2023-04-04T04:04:04;11.07;;;4.45;;
45792;SDS011;31495;42.740;22.908;2023-04-04T04:05:04;6.90;;;2.60;;
45792;SDS011;31495;42.740;22.908;2023-04-04T04:06:04;8.57;;;3.65;;
45792;SDS011;31495;42.740;22.908;2023-04-04T04:07:03;7.15;;;3.67;;
45792;SDS011;31495;42.740;22.908;2023-04-04T04:08:03;8.15;;;4.07;;
45792;SDS011;31495;42.740;22.908;2023-04-04T04:09:03;13.35;;;6.30;;
45792;SDS011;31495;42.740;22.908;2023-04-04T04:10:02;14.70;;;6.45;;
45792;SDS011;31495;42.740;22.908;2023-04-04T04:11:04;8.68;;;5.13;;
45792;SDS011;31495;42.740;22.908;2023-04-04T04:12:03;10.13;;;4.22;;
45792;SDS011;31495;42.740;22.908;2023-04-04T04:13:03;9.68;;;5.22;;
45792;SDS011;31495;42.740;22.908;2023-04-04T04:14:02;11.05;;;5.28;;
45792;SDS011;31495;42.740;22.908;2023-04-04T04:15:02;13.88;;;6.03;;
45792;SDS011;31495;42.740;22.908;2023-04-04T04:16:02;14.07;;;6.95;;
45792;SDS011;31495;42.740;22.908;2023-04-04T04:17:01;8.50;;;5.40;;
45792;SDS011;31495;42.740;22.908;2023-04-04T04:18:01;11.68;;;5.63;;
45792;SDS011;31495;42.740;22.908;2023-04-04T04:19:00;12.05;;;6.88;;
45792;SDS011;31495;42.740;22.908;2023-04-04T04:20:00;12.93;;;6.32;;
45792;SDS011;31495;42.740;22.908;2023-04-04T04:21:00;12.73;;;6.55;;
45792;SDS011;31495;42.740;22.908;2023-04-04T04:22:00;18.58;;;9.70;;
45792;SDS011;31495;42.740;22.908;2023-04-04T04:23:00;23.80;;;10.65;;
45792;SDS011;31495;42.740;22.908;2023-04-04T04:23:59;18.83;;;8.35;;
45792;SDS011;31495;42.740;22.908;2023-04-04T04:24:59;17.58;;;6.65;;
45792;SDS011;31495;42.740;22.908;2023-04-04T04:25:59;20.15;;;7.38;;
45792;SDS011;31495;42.740;22.908;2023-04-04T04:26:59;20.23;;;6.85;;
45792;SDS011;31495;42.740;22.908;2023-04-04T04:27:58;28.40;;;7.28;;
45792;SDS011;31495;42.740;22.908;2023-04-04T04:28:58;18.42;;;7.22;;
45792;SDS011;31495;42.740;22.908;2023-04-04T04:29:58;20.38;;;8.32;;
45792;SDS011;31495;42.740;22.908;2023-04-04T04:31:06;18.20;;;8.40;;
45792;SDS011;31495;42.740;22.908;2023-04-04T04:32:07;12.38;;;6.38;;
45792;SDS011;31495;42.740;22.908;2023-04-04T04:33:06;17.35;;;6.80;;
45792;SDS011;31495;42.740;22.908;2023-04-04T04:34:06;21.33;;;8.05;;
45792;SDS011;31495;42.740;22.908;2023-04-04T04:35:09;16.17;;;7.47;;
45792;SDS011;31495;42.740;22.908;2023-04-04T04:36:09;15.57;;;8.00;;
45792;SDS011;31495;42.740;22.908;2023-04-04T04:37:08;10.82;;;6.43;;
45792;SDS011;31495;42.740;22.908;2023-04-04T04:38:07;17.92;;;8.27;;
45792;SDS011;31495;42.740;22.908;2023-04-04T04:39:07;14.38;;;7.40;;
45792;SDS011;31495;42.740;22.908;2023-04-04T04:40:07;16.98;;;8.18;;
45792;SDS011;31495;42.740;22.908;2023-04-04T04:41:07;11.90;;;6.22;;
45792;SDS011;31495;42.740;22.908;2023-04-04T04:42:06;15.05;;;6.95;;
45792;SDS011;31495;42.740;22.908;2023-04-04T04:43:06;13.88;;;5.65;;
45792;SDS011;31495;42.740;22.908;2023-04-04T04:44:05;9.23;;;4.78;;
45792;SDS011;31495;42.740;22.908;2023-04-04T04:45:04;8.27;;;3.10;;
45792;SDS011;31495;42.740;22.908;2023-04-04T04:46:04;6.45;;;2.80;;
45792;SDS011;31495;42.740;22.908;2023-04-04T04:47:05;7.07;;;3.40;;
45792;SDS011;31495;42.740;22.908;2023-04-04T04:48:04;3.28;;;2.05;;
45792;SDS011;31495;42.740;22.908;2023-04-04T04:49:04;6.30;;;3.03;;
45792;SDS011;31495;42.740;22.908;2023-04-04T04:50:04;6.68;;;3.15;;
45792;SDS011;31495;42.740;22.908;2023-04-04T04:51:04;6.68;;;3.47;;
45792;SDS011;31495;42.740;22.908;2023-04-04T04:52:03;6.88;;;3.20;;
45792;SDS011;31495;42.740;22.908;2023-04-04T04:53:03;7.00;;;3.55;;
45792;SDS011;31495;42.740;22.908;2023-04-04T04:54:03;5.47;;;3.55;;
45792;SDS011;31495;42.740;22.908;2023-04-04T04:55:02;11.93;;;4.20;;
45792;SDS011;31495;42.740;22.908;2023-04-04T04:56:02;10.82;;;4.38;;
45792;SDS011;31495;42.740;22.908;2023-04-04T04:57:03;12.27;;;4.90;;
45792;SDS011;31495;42.740;22.908;2023-04-04T04:58:02;11.35;;;5.30;;
45792;SDS011;31495;42.740;22.908;2023-04-04T04:59:03;10.63;;;4.93;;
45792;SDS011;31495;42.740;22.908;2023-04-04T05:00:05;14.00;;;5.53;;
45792;SDS011;31495;42.740;22.908;2023-04-04T05:01:05;14.00;;;5.72;;
45792;SDS011;31495;42.740;22.908;2023-04-04T05:02:05;15.75;;;6.65;;
45792;SDS011;31495;42.740;22.908;2023-04-04T05:03:04;13.02;;;5.78;;
45792;SDS011;31495;42.740;22.908;2023-04-04T05:04:07;14.32;;;6.10;;
45792;SDS011;31495;42.740;22.908;2023-04-04T05:05:07;13.63;;;5.47;;
45792;SDS011;31495;42.740;22.908;2023-04-04T05:06:06;12.90;;;5.20;;
45792;SDS011;31495;42.740;22.908;2023-04-04T05:07:06;12.45;;;4.80;;
45792;SDS011;31495;42.740;22.908;2023-04-04T05:08:06;10.65;;;4.75;;
45792;SDS011;31495;42.740;22.908;2023-04-04T05:09:06;8.45;;;4.07;;
45792;SDS011;31495;42.740;22.908;2023-04-04T05:10:05;10.80;;;4.38;;
45792;SDS011;31495;42.740;22.908;2023-04-04T05:11:05;7.32;;;3.20;;
45792;SDS011;31495;42.740;22.908;2023-04-04T05:12:05;7.25;;;3.70;;
45792;SDS011;31495;42.740;22.908;2023-04-04T05:13:04;7.78;;;3.75;;
45792;SDS011;31495;42.740;22.908;2023-04-04T05:14:04;10.95;;;3.47;;
45792;SDS011;31495;42.740;22.908;2023-04-04T05:15:05;8.25;;;3.95;;
45792;SDS011;31495;42.740;22.908;2023-04-04T05:16:05;9.43;;;4.68;;
45792;SDS011;31495;42.740;22.908;2023-04-04T05:17:05;9.20;;;5.03;;
45792;SDS011;31495;42.740;22.908;2023-04-04T05:18:05;7.57;;;4.20;;
45792;SDS011;31495;42.740;22.908;2023-04-04T05:19:04;11.07;;;5.78;;
45792;SDS011;31495;42.740;22.908;2023-04-04T05:20:04;16.55;;;6.55;;
45792;SDS011;31495;42.740;22.908;2023-04-04T05:21:04;13.35;;;7.15;;
45792;SDS011;31495;42.740;22.908;2023-04-04T05:22:04;17.27;;;7.57;;
45792;SDS011;31495;42.740;22.908;2023-04-04T05:23:05;16.27;;;8.50;;
45792;SDS011;31495;42.740;22.908;2023-04-04T05:24:05;15.20;;;6.68;;
45792;SDS011;31495;42.740;22.908;2023-04-04T05:25:05;6.63;;;3.60;;
45792;SDS011;31495;42.740;22.908;2023-04-04T05:26:05;4.65;;;2.90;;
45792;SDS011;31495;42.740;22.908;2023-04-04T05:27:05;2.92;;;1.70;;
45792;SDS011;31495;42.740;22.908;2023-04-04T05:28:04;5.32;;;2.72;;
45792;SDS011;31495;42.740;22.908;2023-04-04T05:29:04;2.75;;;1.17;;
45792;SDS011;31495;42.740;22.908;2023-04-04T05:30:03;1.83;;;1.02;;
45792;SDS011;31495;42.740;22.908;2023-04-04T05:31:04;1.17;;;0.73;;
45792;SDS011;31495;42.740;22.908;2023-04-04T05:32:03;2.22;;;0.90;;
45792;SDS011;31495;42.740;22.908;2023-04-04T05:33:03;1.30;;;0.65;;
45792;SDS011;31495;42.740;22.908;2023-04-04T05:34:03;0.88;;;0.60;;
45792;SDS011;31495;42.740;22.908;2023-04-04T05:35:06;2.25;;;0.50;;
45792;SDS011;31495;42.740;22.908;2023-04-04T05:36:06;1.90;;;1.10;;
45792;SDS011;31495;42.740;22.908;2023-04-04T05:37:06;4.93;;;2.45;;
45792;SDS011;31495;42.740;22.908;2023-04-04T05:38:06;8.55;;;4.78;;
45792;SDS011;31495;42.740;22.908;2023-04-04T05:39:05;2.85;;;1.08;;
45792;SDS011;31495;42.740;22.908;2023-04-04T05:40:06;2.17;;;1.15;;
45792;SDS011;31495;42.740;22.908;2023-04-04T05:41:06;3.28;;;1.02;;
45792;SDS011;31495;42.740;22.908;2023-04-04T05:42:05;2.40;;;1.45;;
45792;SDS011;31495;42.740;22.908;2023-04-04T05:43:05;1.45;;;0.95;;
45792;SDS011;31495;42.740;22.908;2023-04-04T05:44:05;0.93;;;0.50;;
45792;SDS011;31495;42.740;22.908;2023-04-04T05:45:05;1.55;;;0.73;;
45792;SDS011;31495;42.740;22.908;2023-04-04T05:46:05;1.60;;;0.82;;
45792;SDS011;31495;42.740;22.908;2023-04-04T05:47:05;4.28;;;1.55;;
45792;SDS011;31495;42.740;22.908;2023-04-04T05:48:04;3.88;;;2.20;;
45792;SDS011;31495;42.740;22.908;2023-04-04T05:49:04;5.22;;;2.63;;
45792;SDS011;31495;42.740;22.908;2023-04-04T05:50:04;2.30;;;0.85;;
45792;SDS011;31495;42.740;22.908;2023-04-04T05:51:04;1.50;;;0.80;;
45792;SDS011;31495;42.740;22.908;2023-04-04T05:52:04;1.08;;;0.63;;
45792;SDS011;31495;42.740;22.908;2023-04-04T05:53:03;1.40;;;0.60;;
45792;SDS011;31495;42.740;22.908;2023-04-04T05:54:02;1.00;;;0.45;;
45792;SDS011;31495;42.740;22.908;2023-04-04T05:55:02;1.85;;;0.77;;
45792;SDS011;31495;42.740;22.908;2023-04-04T05:56:02;2.20;;;0.90;;
45792;SDS011;31495;42.740;22.908;2023-04-04T05:57:02;1.33;;;0.65;;
45792;SDS011;31495;42.740;22.908;2023-04-04T05:58:01;1.83;;;0.80;;
45792;SDS011;31495;42.740;22.908;2023-04-04T05:59:01;1.50;;;0.70;;